createdAt,value
2022-10-28T00:00:05.590Z,31.00
2022-10-28T00:06:12.762Z,32.00
2022-10-28T00:12:16.639Z,32.25
2022-10-28T00:18:18.571Z,32.00
2022-10-28T00:24:21.935Z,30.25
2022-10-28T00:30:24.199Z,31.25
2022-10-28T00:36:36.439Z,33.75
2022-10-28T00:42:38.645Z,30.00
2022-10-28T00:48:43.605Z,30.25
2022-10-28T00:54:46.936Z,30.75
2022-10-28T01:00:49.805Z,28.75
2022-10-28T01:06:55.262Z,27.50
2022-10-28T01:13:12.766Z,27.00
2022-10-28T01:19:53.454Z,26.00
2022-10-28T01:26:14.836Z,26.75
2022-10-28T01:32:38.253Z,24.75
2022-10-28T01:39:12.538Z,26.00
2022-10-28T01:45:21.451Z,26.00
2022-10-28T01:51:36.575Z,25.50
2022-10-28T01:57:42.843Z,26.00
2022-10-28T02:03:47.605Z,23.00
2022-10-28T02:10:10.129Z,22.75
2022-10-28T02:16:44.971Z,21.50
2022-10-28T02:23:05.105Z,20.50
2022-10-28T02:29:21.174Z,18.75
2022-10-28T02:35:34.229Z,22.50
2022-10-28T02:41:50.808Z,18.00
2022-10-28T02:48:02.960Z,22.50
2022-10-28T02:54:14.452Z,18.75
2022-10-28T03:00:19.534Z,13.50
2022-10-28T03:06:23.080Z,18.25
2022-10-28T03:12:27.065Z,18.00
2022-10-28T03:18:32.059Z,17.25
2022-10-28T03:24:34.270Z,19.25
2022-10-28T03:30:37.169Z,18.00
2022-10-28T03:36:40.696Z,18.50
2022-10-28T03:42:43.155Z,16.50
2022-10-28T03:48:47.656Z,17.00
2022-10-28T03:54:49.586Z,17.75
2022-10-28T04:00:55.025Z,17.25
2022-10-28T04:06:58.392Z,17.25
2022-10-28T04:13:03.695Z,18.00
2022-10-28T04:19:07.752Z,19.50
2022-10-28T04:25:11.108Z,22.00
2022-10-28T04:31:16.136Z,17.00
2022-10-28T04:37:20.328Z,19.25
2022-10-28T04:43:24.834Z,19.50
2022-10-28T04:49:26.916Z,19.00
2022-10-28T04:55:28.860Z,16.75
2022-10-28T05:01:45.291Z,21.75
2022-10-28T05:07:48.264Z,18.75
2022-10-28T05:13:53.446Z,18.75
2022-10-28T05:19:56.885Z,20.75
2022-10-28T05:26:00.488Z,23.75
2022-10-28T05:38:25.477Z,22.00
2022-10-28T05:44:28.071Z,20.50
2022-10-28T05:50:30.043Z,20.00
2022-10-28T05:56:35.787Z,17.00
2022-10-28T06:02:39.479Z,19.25
2022-10-28T06:08:42.586Z,21.50
2022-10-28T06:14:44.596Z,21.00
2022-10-28T06:20:55.611Z,22.75
2022-10-28T06:26:58.726Z,22.50
2022-10-28T06:33:00.721Z,23.00
2022-10-28T06:39:03.701Z,21.50
2022-10-28T06:45:06.469Z,25.00
2022-10-28T06:51:10.448Z,24.25
2022-10-28T06:57:12.704Z,21.50
2022-10-28T07:03:19.124Z,21.00
2022-10-28T07:09:26.284Z,25.50
2022-10-28T07:15:28.315Z,21.25
2022-10-28T07:21:31.814Z,24.00
2022-10-28T07:27:36.228Z,21.00
2022-10-28T07:33:40.760Z,20.00
2022-10-28T07:39:45.474Z,22.50
2022-10-28T07:45:49.431Z,23.00
2022-10-28T07:51:59.134Z,24.50
2022-10-28T07:58:04.661Z,24.00
2022-10-28T08:04:10.643Z,21.50
2022-10-28T08:10:15.147Z,23.50
2022-10-28T08:16:18.248Z,24.50
2022-10-28T08:22:21.524Z,23.50
2022-10-28T08:28:24.361Z,22.00
2022-10-28T08:34:30.151Z,14.00
2022-10-28T08:40:53.083Z,19.33
2022-10-28T08:47:14.764Z,13.00
2022-10-28T08:53:33.657Z,21.67
2022-10-28T08:59:39.054Z,23.00
2022-10-28T09:05:48.175Z,22.33
2022-10-28T09:12:07.444Z,23.00
2022-10-28T09:18:42.628Z,18.33
2022-10-28T09:24:55.230Z,27.00
2022-10-28T09:31:03.172Z,22.00
2022-10-28T09:37:21.633Z,23.33
2022-10-28T09:43:28.531Z,20.00
2022-10-28T09:49:36.392Z,31.75
2022-10-28T09:55:38.541Z,28.67
2022-10-28T10:01:43.036Z,23.00
2022-10-28T10:08:09.183Z,21.33
2022-10-28T10:14:17.100Z,21.67
2022-10-28T10:20:23.947Z,21.33
2022-10-28T10:26:32.834Z,21.00
2022-10-28T10:32:37.580Z,21.00
2022-10-28T10:38:52.020Z,23.00
2022-10-28T10:45:21.037Z,19.00
2022-10-28T10:51:27.849Z,19.00
2022-10-28T10:57:31.396Z,19.00
2022-10-28T11:04:02.428Z,21.67
2022-10-28T11:10:07.115Z,18.33
2022-10-28T11:16:25.688Z,22.00
2022-10-28T11:22:43.255Z,21.00
2022-10-28T11:29:04.443Z,20.67
2022-10-28T11:35:24.428Z,19.33
2022-10-28T11:41:58.116Z,21.00
2022-10-28T11:48:18.341Z,19.33
2022-10-28T11:55:22.890Z,19.00
2022-10-28T12:01:58.116Z,16.67
2022-10-28T12:08:05.863Z,18.33
2022-10-28T12:14:42.061Z,10.00
2022-10-28T12:21:05.614Z,10.00
2022-10-28T12:27:19.222Z,10.25
2022-10-28T12:33:39.544Z,13.00
2022-10-28T12:39:49.097Z,10.33
2022-10-28T12:45:54.649Z,9.00
2022-10-28T12:52:06.518Z,12.00
2022-10-28T12:58:24.144Z,12.33
2022-10-28T13:04:28.694Z,12.33
2022-10-28T13:10:52.530Z,12.00
2022-10-28T13:17:21.142Z,13.33
2022-10-28T13:23:49.963Z,12.00
2022-10-28T13:29:56.391Z,12.00
2022-10-28T13:36:19.792Z,10.00
2022-10-28T13:42:24.969Z,16.67
2022-10-28T13:48:30.466Z,16.67
2022-10-28T13:54:53.411Z,14.67
2022-10-28T14:00:56.516Z,16.33
2022-10-28T14:07:01.691Z,14.67
2022-10-28T14:19:37.165Z,14.00
2022-10-28T14:25:46.497Z,6.67
2022-10-28T14:31:49.140Z,16.33
2022-10-28T14:38:49.596Z,18.00
2022-10-28T14:45:04.777Z,15.67
2022-10-28T14:51:14.742Z,15.00
2022-10-28T14:57:22.363Z,11.00
2022-10-28T15:03:25.193Z,16.00
2022-10-28T15:09:33.337Z,18.67
2022-10-28T15:15:36.130Z,21.67
2022-10-28T15:21:38.034Z,25.33
2022-10-28T15:27:42.947Z,22.00
2022-10-28T15:33:45.732Z,23.33
2022-10-28T15:39:52.477Z,23.67
2022-10-28T15:45:57.762Z,20.00
2022-10-28T15:52:18.041Z,22.00
2022-10-28T15:58:19.918Z,21.33
2022-10-28T16:04:22.245Z,25.67
2022-10-28T16:10:28.632Z,27.67
2022-10-28T16:16:32.721Z,24.00
2022-10-28T16:22:36.571Z,25.33
2022-10-28T16:28:41.421Z,28.00
2022-10-28T16:34:47.076Z,27.67
2022-10-28T16:40:52.550Z,29.75
2022-10-28T16:46:54.886Z,28.50
2022-10-28T16:52:57.724Z,31.25
2022-10-28T16:58:59.686Z,32.00
